ΕΜΥ, Εθνική Μετεωρολογική Υπηρεσία - Δελτία Καιρού, Προγνώσεις

ΑΕΡΟΝΑΥΤΙΛΙΑ

GREEK AIRPORTS CODES

LGML 270800Z 04008KT 9999 SCT040 22/16 Q1012 RMK SCT080 BKN160=

EUROPEAN AIRPORTS CODES

LFPO 271000Z 29010KT 260V320 9999 FEW022 SCT034 BKN250 19/11Q1012 NOSIG=